createdAt,value
2022-10-04T00:01:24.353Z,3.25
2022-10-04T00:03:54.462Z,2.67
2022-10-04T00:06:22.928Z,4.72
2022-10-04T00:08:53.727Z,3.47
2022-10-04T00:11:31.030Z,3.85
2022-10-04T00:13:59.218Z,6.35
2022-10-04T00:16:34.800Z,3.30
2022-10-04T00:19:37.730Z,3.47
2022-10-04T00:22:04.374Z,2.75
2022-10-04T00:24:32.093Z,3.60
2022-10-04T00:27:21.544Z,3.38
2022-10-04T00:30:23.348Z,2.92
2022-10-04T00:33:03.105Z,2.90
2022-10-04T00:35:29.831Z,2.40
2022-10-04T00:38:00.944Z,2.90
2022-10-04T00:40:34.345Z,3.00
2022-10-04T00:43:24.004Z,3.45
2022-10-04T00:46:16.187Z,2.95
2022-10-04T00:48:46.523Z,2.90
2022-10-04T00:51:25.033Z,3.55
2022-10-04T00:54:04.532Z,2.50
2022-10-04T00:56:44.995Z,2.50
2022-10-04T00:59:50.741Z,3.00
2022-10-04T01:02:35.813Z,4.07
2022-10-04T01:05:10.564Z,2.47
2022-10-04T01:07:40.933Z,3.30
2022-10-04T01:10:15.342Z,3.00
2022-10-04T01:13:12.321Z,1.65
2022-10-04T01:15:51.261Z,1.88
2022-10-04T01:18:21.013Z,2.88
2022-10-04T01:21:28.953Z,1.92
2022-10-04T01:23:58.695Z,2.47
2022-10-04T01:26:27.991Z,1.20
2022-10-04T01:29:11.866Z,1.42
2022-10-04T01:31:51.983Z,1.70
2022-10-04T01:34:22.958Z,2.78
2022-10-04T01:36:50.414Z,1.60
2022-10-04T01:44:59.172Z,1.65
2022-10-04T01:47:44.630Z,1.52
2022-10-04T01:50:28.768Z,2.00
2022-10-04T01:52:58.405Z,1.77
2022-10-04T01:55:30.369Z,1.42
2022-10-04T01:58:14.625Z,1.17
2022-10-04T02:00:46.283Z,1.38
2022-10-04T02:03:22.236Z,1.48
2022-10-04T02:05:54.278Z,1.25
2022-10-04T02:08:27.917Z,1.33
2022-10-04T02:10:54.683Z,0.80
2022-10-04T02:13:21.346Z,1.13
2022-10-04T02:15:48.248Z,1.00
2022-10-04T02:18:16.863Z,1.35
2022-10-04T02:20:43.551Z,1.45
2022-10-04T02:23:10.514Z,1.30
2022-10-04T02:25:37.809Z,1.05
2022-10-04T02:28:05.276Z,1.13
2022-10-04T02:30:38.731Z,1.38
2022-10-04T02:33:05.784Z,0.77
2022-10-04T02:35:37.618Z,1.38
2022-10-04T02:38:13.528Z,0.83
2022-10-04T02:40:48.910Z,0.90
2022-10-04T02:43:19.846Z,0.70
2022-10-04T02:45:50.274Z,0.68
2022-10-04T02:48:25.650Z,1.30
2022-10-04T02:50:52.684Z,1.00
2022-10-04T02:53:26.482Z,1.00
2022-10-04T02:55:56.292Z,0.90
2022-10-04T02:58:23.986Z,1.00
2022-10-04T03:00:52.667Z,0.80
2022-10-04T03:03:29.082Z,1.13
2022-10-04T03:06:09.548Z,1.25
2022-10-04T03:08:44.661Z,0.90
2022-10-04T03:11:11.687Z,0.77
2022-10-04T03:13:39.234Z,0.50
2022-10-04T03:16:06.229Z,0.68
2022-10-04T03:18:32.890Z,0.75
2022-10-04T03:21:02.351Z,0.98
2022-10-04T03:23:29.857Z,0.80
2022-10-04T03:25:59.925Z,1.08
2022-10-04T03:28:27.817Z,0.82
2022-10-04T03:30:54.558Z,0.90
2022-10-04T03:33:23.292Z,0.77
2022-10-04T03:35:55.106Z,0.90
2022-10-04T03:38:21.991Z,0.50
2022-10-04T03:40:56.353Z,0.77
2022-10-04T03:43:25.648Z,1.02
2022-10-04T03:45:52.471Z,0.88
2022-10-04T03:48:29.005Z,1.02
2022-10-04T03:50:55.689Z,1.02
2022-10-04T03:53:29.673Z,0.50
2022-10-04T03:55:57.104Z,0.60
2022-10-04T03:58:26.616Z,0.60
2022-10-04T04:00:59.522Z,0.50
2022-10-04T04:03:26.204Z,0.68
2022-10-04T04:05:54.212Z,0.93
2022-10-04T04:08:33.415Z,0.50
2022-10-04T04:11:01.680Z,0.60
2022-10-04T04:13:33.678Z,1.27
2022-10-04T04:16:01.325Z,0.63
2022-10-04T04:18:35.486Z,0.60
2022-10-04T04:21:02.952Z,0.52
2022-10-04T04:23:41.629Z,0.47
2022-10-04T04:26:11.456Z,0.57
2022-10-04T04:28:42.867Z,0.65
2022-10-04T04:31:40.949Z,0.95
2022-10-04T04:34:24.314Z,0.80
2022-10-04T04:36:51.088Z,0.85
2022-10-04T04:39:22.303Z,0.52
2022-10-04T04:41:50.787Z,1.00
2022-10-04T04:44:18.062Z,0.70
2022-10-04T04:46:48.542Z,0.55
2022-10-04T04:49:16.841Z,2.25
2022-10-04T04:51:48.122Z,0.77
2022-10-04T04:54:14.833Z,1.90
2022-10-04T04:56:41.565Z,0.88
2022-10-04T04:59:08.210Z,1.25
2022-10-04T05:01:45.872Z,0.60
2022-10-04T05:04:12.840Z,0.82
2022-10-04T05:06:43.751Z,0.50
2022-10-04T05:09:37.535Z,0.45
2022-10-04T05:12:16.375Z,0.50
2022-10-04T05:14:49.854Z,1.05
2022-10-04T05:17:24.398Z,0.70
2022-10-04T05:19:51.457Z,1.17
2022-10-04T05:22:20.240Z,0.60
2022-10-04T05:24:48.253Z,0.63
2022-10-04T05:27:35.685Z,0.65
2022-10-04T05:30:04.267Z,1.58
2022-10-04T05:32:37.156Z,2.17
2022-10-04T05:35:15.218Z,1.23
2022-10-04T05:38:03.141Z,0.55
2022-10-04T05:40:35.566Z,0.88
2022-10-04T05:43:02.259Z,1.02
2022-10-04T05:45:29.992Z,2.08
2022-10-04T05:47:57.819Z,0.57
2022-10-04T05:50:41.751Z,1.30
2022-10-04T05:53:19.684Z,1.02
2022-10-04T05:56:10.809Z,0.80
2022-10-04T05:58:58.669Z,0.63
2022-10-04T06:02:00.733Z,1.25
2022-10-04T06:04:41.021Z,0.73
2022-10-04T06:07:46.430Z,2.38
2022-10-04T06:10:41.020Z,2.80
2022-10-04T06:13:15.158Z,1.35
2022-10-04T06:16:06.912Z,1.05
2022-10-04T06:18:43.213Z,1.17
2022-10-04T06:21:16.852Z,1.48
2022-10-04T06:23:50.337Z,0.82
2022-10-04T06:26:25.560Z,0.50
2022-10-04T06:29:00.886Z,0.65
2022-10-04T06:31:27.530Z,1.73
2022-10-04T06:34:12.228Z,0.57
2022-10-04T06:37:00.159Z,1.13
2022-10-04T06:39:33.100Z,0.65
2022-10-04T06:42:27.942Z,0.25
2022-10-04T06:45:02.921Z,2.17
2022-10-04T06:47:53.828Z,1.10
2022-10-04T06:50:43.337Z,0.85
2022-10-04T06:53:24.025Z,1.02
2022-10-04T06:56:09.201Z,0.82
2022-10-04T06:58:51.582Z,1.25
2022-10-04T07:01:26.245Z,1.42
2022-10-04T07:04:08.248Z,0.20
2022-10-04T07:06:41.025Z,1.20
2022-10-04T07:09:13.013Z,0.40
2022-10-04T07:11:53.152Z,1.55
2022-10-04T07:14:33.150Z,2.03
2022-10-04T07:17:03.879Z,1.30
2022-10-04T07:19:49.836Z,0.82
2022-10-04T07:22:20.131Z,0.77
2022-10-04T07:25:01.755Z,0.20
2022-10-04T07:27:28.427Z,0.30
2022-10-04T07:29:55.774Z,0.73
2022-10-04T07:32:25.509Z,1.02
2022-10-04T07:35:10.292Z,2.28
2022-10-04T07:38:07.451Z,0.20
2022-10-04T07:40:37.017Z,0.35
2022-10-04T07:43:09.121Z,0.85
2022-10-04T07:45:38.025Z,0.30
2022-10-04T07:48:18.172Z,1.02
2022-10-04T07:51:05.397Z,2.85
2022-10-04T07:53:44.950Z,1.17
2022-10-04T07:56:12.937Z,1.05
2022-10-04T07:59:05.312Z,0.40
2022-10-04T08:01:57.899Z,1.25
2022-10-04T08:04:53.789Z,0.10
2022-10-04T08:07:26.035Z,1.70
2022-10-04T08:10:26.962Z,0.30
2022-10-04T08:13:15.134Z,0.82
2022-10-04T08:15:42.811Z,0.93
2022-10-04T08:18:41.558Z,1.33
2022-10-04T08:21:09.193Z,0.73
2022-10-04T08:23:54.737Z,0.32
2022-10-04T08:26:40.155Z,0.77
2022-10-04T08:29:18.725Z,0.35
2022-10-04T08:32:00.723Z,0.20
2022-10-04T08:34:44.539Z,0.85
2022-10-04T08:37:35.940Z,1.30
2022-10-04T08:40:36.434Z,0.10
2022-10-04T08:43:21.756Z,0.20
2022-10-04T08:46:06.663Z,0.25
2022-10-04T08:48:36.434Z,0.88
2022-10-04T08:51:23.943Z,0.70
2022-10-04T08:54:29.101Z,0.85
2022-10-04T08:57:05.622Z,0.30
2022-10-04T08:59:57.194Z,0.98
2022-10-04T09:03:00.855Z,0.40
2022-10-04T09:05:34.059Z,0.77
2022-10-04T09:08:18.160Z,0.20
2022-10-04T09:11:14.999Z,0.35
2022-10-04T09:13:45.736Z,0.20
2022-10-04T09:16:31.244Z,0.50
2022-10-04T09:19:19.371Z,0.40
2022-10-04T09:22:10.139Z,0.20
2022-10-04T09:25:01.172Z,0.20
2022-10-04T09:27:57.796Z,0.20
2022-10-04T09:30:47.055Z,0.10
2022-10-04T09:33:39.290Z,0.30
2022-10-04T09:36:09.012Z,0.30
2022-10-04T09:38:38.830Z,0.20
2022-10-04T09:41:24.021Z,3.08
2022-10-04T09:44:09.094Z,0.38
2022-10-04T09:47:13.320Z,0.75
2022-10-04T09:50:04.541Z,0.35
2022-10-04T09:53:00.884Z,0.40
2022-10-04T09:55:39.646Z,0.47
2022-10-04T09:58:09.213Z,0.10
2022-10-04T10:00:47.579Z,0.90
2022-10-04T10:03:32.817Z,1.38
2022-10-04T10:06:18.401Z,1.55
2022-10-04T10:08:48.675Z,1.65
2022-10-04T10:11:15.342Z,1.33
2022-10-04T10:13:59.661Z,1.13
2022-10-04T10:16:48.706Z,0.93
2022-10-04T10:19:41.272Z,2.38
2022-10-04T10:22:23.167Z,0.28
2022-10-04T10:25:04.720Z,1.10
2022-10-04T10:28:19.349Z,0.40
2022-10-04T10:30:56.028Z,0.90
2022-10-04T10:34:03.952Z,1.48
2022-10-04T10:36:36.950Z,0.28
2022-10-04T10:39:18.952Z,0.28
2022-10-04T10:42:26.366Z,0.75
2022-10-04T10:45:21.159Z,2.05
2022-10-04T10:48:21.038Z,1.52
2022-10-04T10:51:06.408Z,0.57
2022-10-04T10:53:51.575Z,0.50
2022-10-04T10:56:21.031Z,0.98
2022-10-04T10:58:50.854Z,0.90
2022-10-04T11:01:17.545Z,2.10
2022-10-04T11:03:56.206Z,4.15
2022-10-04T11:06:31.358Z,1.75
2022-10-04T11:09:09.742Z,3.42
2022-10-04T11:11:54.520Z,1.38
2022-10-04T11:14:33.155Z,2.35
2022-10-04T11:17:37.561Z,1.20
2022-10-04T11:20:22.681Z,0.20
2022-10-04T11:23:08.366Z,1.30
2022-10-04T11:26:02.926Z,0.88
2022-10-04T11:29:03.110Z,1.02
2022-10-04T11:31:41.892Z,2.13
2022-10-04T11:34:47.678Z,0.93
2022-10-04T11:37:53.063Z,0.50
2022-10-04T11:40:44.348Z,1.83
2022-10-04T11:43:20.053Z,1.67
2022-10-04T11:46:22.182Z,1.48
2022-10-04T11:49:14.483Z,1.20
2022-10-04T11:52:19.172Z,1.38
2022-10-04T11:55:04.805Z,1.08
2022-10-04T11:57:42.903Z,0.50
2022-10-04T12:00:19.611Z,1.25
2022-10-04T12:02:55.548Z,2.78
2022-10-04T12:05:25.023Z,0.40
2022-10-04T12:08:01.914Z,0.47
2022-10-04T12:10:38.580Z,2.03
2022-10-04T12:13:17.275Z,0.57
2022-10-04T12:15:53.377Z,0.20
2022-10-04T12:18:25.917Z,3.20
2022-10-04T12:23:57.966Z,0.60
2022-10-04T12:26:50.093Z,1.05
2022-10-04T12:29:48.569Z,1.77
2022-10-04T12:32:33.575Z,1.08
2022-10-04T12:35:11.105Z,1.20
2022-10-04T12:37:52.488Z,1.60
2022-10-04T12:40:31.436Z,1.23
2022-10-04T12:43:09.042Z,1.02
2022-10-04T12:45:56.323Z,1.38
2022-10-04T12:48:27.909Z,2.55
2022-10-04T12:51:17.269Z,0.45
2022-10-04T12:53:54.502Z,0.45
2022-10-04T12:56:52.507Z,1.58
2022-10-04T12:59:34.506Z,0.20
2022-10-04T13:02:23.991Z,0.30
2022-10-04T13:05:00.051Z,0.20
2022-10-04T13:07:45.028Z,1.70
2022-10-04T13:10:25.360Z,0.25
2022-10-04T13:13:10.630Z,0.60
2022-10-04T13:18:53.590Z,0.30
2022-10-04T13:21:41.568Z,0.30
2022-10-04T13:24:26.284Z,0.40
2022-10-04T13:26:58.765Z,0.20
2022-10-04T13:29:31.518Z,0.38
2022-10-04T13:32:21.038Z,0.30
2022-10-04T13:35:13.338Z,0.10
2022-10-04T13:38:05.015Z,1.30
2022-10-04T13:40:40.726Z,0.35
2022-10-04T13:43:13.239Z,3.60
2022-10-04T13:48:27.883Z,2.15
2022-10-04T13:51:15.715Z,1.38
2022-10-04T13:54:13.230Z,0.70
2022-10-04T13:56:49.790Z,0.40
2022-10-04T13:59:36.877Z,0.38
2022-10-04T14:02:18.358Z,1.13
2022-10-04T14:04:59.973Z,0.25
2022-10-04T14:07:52.273Z,0.85
2022-10-04T14:10:42.593Z,0.43
2022-10-04T14:13:31.188Z,6.10
2022-10-04T14:16:16.316Z,3.80
2022-10-04T14:19:04.515Z,0.52
2022-10-04T14:21:59.107Z,3.38
2022-10-04T14:24:52.590Z,3.85
2022-10-04T14:27:41.710Z,0.32
2022-10-04T14:30:29.971Z,0.82
2022-10-04T14:33:23.156Z,1.70
2022-10-04T14:36:08.366Z,0.52
2022-10-04T14:39:09.028Z,0.68
2022-10-04T14:41:45.235Z,1.85
2022-10-04T14:44:42.858Z,3.88
2022-10-04T14:47:11.678Z,9.05
2022-10-04T14:50:15.631Z,4.93
2022-10-04T14:53:19.915Z,3.50
2022-10-04T14:56:20.373Z,2.92
2022-10-04T14:58:53.727Z,0.40
2022-10-04T15:01:24.468Z,2.45
2022-10-04T15:04:18.999Z,2.75
2022-10-04T15:06:56.869Z,1.50
2022-10-04T15:09:48.132Z,1.40
2022-10-04T15:13:08.919Z,0.45
2022-10-04T15:15:26.021Z,0.20
2022-10-04T15:17:52.825Z,0.73
2022-10-04T15:20:32.708Z,0.52
2022-10-04T15:23:14.543Z,0.28
2022-10-04T15:25:42.634Z,0.13
2022-10-04T15:28:32.053Z,0.38
2022-10-04T15:31:29.660Z,0.38
2022-10-04T15:34:07.727Z,0.40
2022-10-04T15:36:52.377Z,1.45
2022-10-04T15:39:57.867Z,1.88
2022-10-04T15:42:27.185Z,1.08
2022-10-04T15:45:59.407Z,4.20
2022-10-04T15:48:49.675Z,3.35
2022-10-04T15:51:19.250Z,2.60
2022-10-04T15:53:57.967Z,3.42
2022-10-04T15:56:39.705Z,2.45
2022-10-04T15:59:25.296Z,2.55
2022-10-04T16:01:58.470Z,4.47
2022-10-04T16:04:31.297Z,2.58
2022-10-04T16:07:06.835Z,2.53
2022-10-04T16:09:46.931Z,5.07
2022-10-04T16:12:31.291Z,3.65
2022-10-04T16:14:57.941Z,2.83
2022-10-04T16:17:43.529Z,3.15
2022-10-04T16:20:33.258Z,3.15
2022-10-04T16:23:28.917Z,3.08
2022-10-04T16:26:06.093Z,2.85
2022-10-04T16:28:57.475Z,3.47
2022-10-04T16:31:46.462Z,2.90
2022-10-04T16:34:22.187Z,2.63
2022-10-04T16:36:55.046Z,3.78
2022-10-04T16:39:52.913Z,2.97
2022-10-04T16:42:22.762Z,2.33
2022-10-04T16:45:06.464Z,3.42
2022-10-04T16:47:35.617Z,3.35
2022-10-04T16:50:02.325Z,3.00
2022-10-04T16:52:47.214Z,3.28
2022-10-04T16:55:49.649Z,3.50
2022-10-04T16:58:28.576Z,0.50
2022-10-04T17:01:24.614Z,0.45
2022-10-04T17:03:54.276Z,1.30
2022-10-04T17:06:32.768Z,0.20
2022-10-04T17:09:18.290Z,0.30
2022-10-04T17:11:45.914Z,1.00
2022-10-04T17:14:36.920Z,0.77
2022-10-04T17:17:23.254Z,0.20
2022-10-04T17:20:02.946Z,0.30
2022-10-04T17:23:01.807Z,0.10
2022-10-04T17:25:31.682Z,0.80
2022-10-04T17:28:02.828Z,0.30
2022-10-04T17:30:38.276Z,0.55
2022-10-04T17:33:31.442Z,0.73
2022-10-04T17:36:01.071Z,3.45
2022-10-04T17:38:30.801Z,3.40
2022-10-04T17:41:23.343Z,0.20
2022-10-04T17:43:53.246Z,0.43
2022-10-04T17:46:23.720Z,3.83
2022-10-04T17:48:55.388Z,6.20
2022-10-04T17:51:41.283Z,3.30
2022-10-04T17:54:16.605Z,3.28
2022-10-04T17:57:19.634Z,2.08
2022-10-04T17:59:47.989Z,2.55
2022-10-04T18:03:00.583Z,2.83
2022-10-04T18:05:41.248Z,2.08
2022-10-04T18:08:07.953Z,3.30
2022-10-04T18:10:38.150Z,3.70
2022-10-04T18:13:20.190Z,2.25
2022-10-04T18:16:04.444Z,2.88
2022-10-04T18:18:37.361Z,3.55
2022-10-04T18:21:04.989Z,0.57
2022-10-04T18:23:34.049Z,0.40
2022-10-04T18:26:09.920Z,4.55
2022-10-04T18:28:36.630Z,3.05
2022-10-04T18:31:30.690Z,4.68
2022-10-04T18:34:19.146Z,3.38
2022-10-04T18:37:04.107Z,1.75
2022-10-04T18:39:30.840Z,0.20
2022-10-04T18:42:14.818Z,0.30
2022-10-04T18:44:49.478Z,1.08
2022-10-04T18:47:29.530Z,1.33
2022-10-04T18:49:56.217Z,1.00
2022-10-04T18:52:54.281Z,0.40
2022-10-04T18:55:20.924Z,0.30
2022-10-04T18:58:18.453Z,0.20
2022-10-04T19:00:50.309Z,0.30
2022-10-04T19:03:45.062Z,0.30
2022-10-04T19:06:34.693Z,0.20
2022-10-04T19:09:07.195Z,0.85
2022-10-04T19:12:00.442Z,0.88
2022-10-04T19:15:11.501Z,0.60
2022-10-04T19:17:46.762Z,1.15
2022-10-04T19:20:40.241Z,0.20
2022-10-04T19:23:22.111Z,0.50
2022-10-04T19:26:30.441Z,1.00
2022-10-04T19:28:50.345Z,1.02
2022-10-04T19:31:21.595Z,0.60
2022-10-04T19:34:08.430Z,0.45
2022-10-04T19:36:44.824Z,1.40
2022-10-04T19:39:30.332Z,0.30
2022-10-04T19:42:17.093Z,0.40
2022-10-04T19:44:52.619Z,1.02
2022-10-04T19:47:58.190Z,0.77
2022-10-04T19:50:35.833Z,0.10
2022-10-04T19:53:15.560Z,0.20
2022-10-04T19:55:51.318Z,2.55
2022-10-04T19:58:24.251Z,0.52
2022-10-04T20:00:51.032Z,0.65
2022-10-04T20:03:17.764Z,0.68
2022-10-04T20:05:48.947Z,0.20
2022-10-04T20:08:37.572Z,1.38
2022-10-04T20:11:33.811Z,0.20
2022-10-04T20:14:03.285Z,1.15
2022-10-04T20:16:53.061Z,0.32
2022-10-04T20:19:29.012Z,0.10
2022-10-04T20:21:56.107Z,3.15
2022-10-04T20:24:37.830Z,0.52
2022-10-04T20:27:05.211Z,0.20
2022-10-04T20:29:38.148Z,0.70
2022-10-04T20:32:05.140Z,1.17
2022-10-04T20:34:37.843Z,0.47
2022-10-04T20:40:02.874Z,0.30
2022-10-04T20:42:29.626Z,0.30
2022-10-04T20:45:11.973Z,0.40
2022-10-04T20:47:43.108Z,0.20
2022-10-04T20:50:10.078Z,0.40
2022-10-04T20:52:36.795Z,0.55
2022-10-04T20:55:09.408Z,1.50
2022-10-04T21:00:19.225Z,0.25
2022-10-04T21:02:46.111Z,0.38
2022-10-04T21:05:22.964Z,0.45
2022-10-04T21:07:49.870Z,2.03
2022-10-04T21:10:20.367Z,0.52
2022-10-04T21:12:47.368Z,0.30
2022-10-04T21:15:17.350Z,0.40
2022-10-04T21:18:05.129Z,0.30
2022-10-04T21:20:41.654Z,1.10
2022-10-04T21:23:27.440Z,0.28
2022-10-04T21:25:54.245Z,0.10
2022-10-04T21:28:30.562Z,0.20
2022-10-04T21:30:57.475Z,0.95
2022-10-04T21:33:24.230Z,1.42
2022-10-04T21:35:51.446Z,0.77
2022-10-04T21:38:18.858Z,0.40
2022-10-04T21:40:45.589Z,0.90
2022-10-04T21:43:12.229Z,0.60
2022-10-04T21:45:38.989Z,0.75
2022-10-04T21:48:05.685Z,0.68
2022-10-04T21:50:32.369Z,0.20
2022-10-04T21:52:59.054Z,0.30
2022-10-04T21:55:25.871Z,0.40
2022-10-04T21:57:52.538Z,0.32
2022-10-04T22:00:19.262Z,0.43
2022-10-04T22:02:46.076Z,0.17
2022-10-04T22:05:12.857Z,0.70
2022-10-04T22:07:39.589Z,0.80
2022-10-04T22:10:06.463Z,0.32
2022-10-04T22:12:33.174Z,0.30
2022-10-04T22:14:59.819Z,0.20
2022-10-04T22:17:26.486Z,0.43
2022-10-04T22:19:53.143Z,0.20
2022-10-04T22:22:19.877Z,1.70
2022-10-04T22:24:46.602Z,0.20
2022-10-04T22:27:14.540Z,0.90
2022-10-04T22:29:41.538Z,0.90
2022-10-04T22:32:38.299Z,0.30
2022-10-04T22:35:13.320Z,0.20
2022-10-04T22:37:39.991Z,1.08
2022-10-04T22:40:32.891Z,0.20
2022-10-04T22:42:59.569Z,1.25
2022-10-04T22:45:30.325Z,0.43
2022-10-04T22:47:58.160Z,0.82
2022-10-04T22:50:31.336Z,0.20
2022-10-04T22:52:58.604Z,1.08
2022-10-04T22:55:25.381Z,0.10
2022-10-04T22:57:52.206Z,0.40
2022-10-04T23:00:18.988Z,0.10
2022-10-04T23:02:45.747Z,0.30
2022-10-04T23:05:14.697Z,1.17
2022-10-04T23:07:42.854Z,0.88
2022-10-04T23:10:10.057Z,0.68
2022-10-04T23:12:36.749Z,1.60
2022-10-04T23:15:03.979Z,0.30
2022-10-04T23:17:35.739Z,0.20
2022-10-04T23:20:13.739Z,0.30
2022-10-04T23:22:42.703Z,0.28
2022-10-04T23:25:15.457Z,0.10
2022-10-04T23:27:42.255Z,1.67
2022-10-04T23:30:16.656Z,0.20
2022-10-04T23:32:44.769Z,0.40
2022-10-04T23:35:16.201Z,0.40
2022-10-04T23:37:42.995Z,0.30
2022-10-04T23:40:10.189Z,0.73
2022-10-04T23:42:36.873Z,0.40
2022-10-04T23:45:06.045Z,0.50
2022-10-04T23:47:34.141Z,0.28
2022-10-04T23:50:00.859Z,0.30
2022-10-04T23:52:36.016Z,0.13
2022-10-04T23:55:02.860Z,0.17
2022-10-04T23:57:29.976Z,0.10
2022-10-04T23:59:58.944Z,0.13
